createdAt,value
2019-02-25T00:02:22.737Z,15.93
2019-02-25T00:04:50.274Z,16.63
2019-02-25T00:07:17.871Z,16.93
2019-02-25T00:09:45.421Z,16.60
2019-02-25T00:12:13.047Z,16.50
2019-02-25T00:14:40.608Z,18.13
2019-02-25T00:17:08.335Z,17.30
2019-02-25T00:19:36.138Z,15.47
2019-02-25T00:22:03.807Z,16.33
2019-02-25T00:24:31.423Z,15.80
2019-02-25T00:26:59.205Z,16.77
2019-02-25T00:29:26.792Z,19.70
2019-02-25T00:31:54.349Z,18.77
2019-02-25T00:34:21.985Z,19.50
2019-02-25T00:36:49.617Z,16.07
2019-02-25T00:39:17.215Z,16.70
2019-02-25T00:41:44.779Z,16.03
2019-02-25T00:44:12.391Z,17.07
2019-02-25T00:46:43.067Z,19.10
2019-02-25T00:49:10.629Z,19.77
2019-02-25T00:51:38.205Z,18.17
2019-02-25T00:54:06.162Z,17.03
2019-02-25T00:56:33.742Z,18.20
2019-02-25T00:59:01.299Z,17.53
2019-02-25T01:01:28.822Z,19.00
2019-02-25T01:03:56.359Z,17.40
2019-02-25T01:06:23.912Z,20.17
2019-02-25T01:08:51.512Z,17.67
2019-02-25T01:11:19.082Z,16.87
2019-02-25T01:13:46.707Z,19.93
2019-02-25T01:16:14.248Z,18.57
2019-02-25T01:18:45.907Z,17.17
2019-02-25T01:21:13.475Z,17.30
2019-02-25T01:23:41.009Z,19.20
2019-02-25T01:26:08.586Z,19.10
2019-02-25T01:28:36.338Z,16.63
2019-02-25T01:31:04.065Z,17.13
2019-02-25T01:33:31.574Z,18.50
2019-02-25T01:35:59.130Z,17.67
2019-02-25T01:38:26.732Z,19.00
2019-02-25T01:40:54.352Z,19.20
2019-02-25T01:43:21.830Z,17.43
2019-02-25T01:45:49.368Z,20.07
2019-02-25T01:48:16.904Z,18.27
2019-02-25T01:50:44.487Z,18.27
2019-02-25T01:53:12.590Z,19.80
2019-02-25T01:55:40.154Z,18.97
2019-02-25T01:58:07.735Z,18.97
2019-02-25T02:00:36.340Z,18.60
2019-02-25T02:03:04.027Z,18.43
2019-02-25T02:05:31.627Z,17.33
2019-02-25T02:08:00.223Z,17.20
2019-02-25T02:10:28.044Z,19.30
2019-02-25T02:12:55.584Z,17.57
2019-02-25T02:15:23.208Z,18.97
2019-02-25T02:17:50.755Z,17.73
2019-02-25T02:20:18.462Z,19.50
2019-02-25T02:22:45.965Z,21.27
2019-02-25T02:25:13.646Z,17.37
2019-02-25T02:27:41.168Z,18.50
2019-02-25T02:30:12.427Z,16.33
2019-02-25T02:32:40.019Z,15.50
2019-02-25T02:35:07.653Z,17.77
2019-02-25T02:37:36.216Z,16.63
2019-02-25T02:40:05.260Z,16.90
2019-02-25T02:42:33.084Z,16.50
2019-02-25T02:45:05.611Z,18.50
2019-02-25T02:47:54.391Z,15.77
2019-02-25T02:50:23.685Z,15.43
2019-02-25T02:52:51.271Z,16.83
2019-02-25T02:55:18.895Z,17.07
2019-02-25T02:57:46.423Z,15.83
2019-02-25T03:00:15.976Z,18.67
2019-02-25T03:02:43.482Z,16.80
2019-02-25T03:05:13.507Z,16.77
2019-02-25T03:07:41.032Z,15.33
2019-02-25T03:10:10.232Z,14.33
2019-02-25T03:12:37.790Z,15.83
2019-02-25T03:15:07.631Z,17.27
2019-02-25T03:17:38.284Z,16.47
2019-02-25T03:20:06.567Z,23.00
2019-02-25T03:22:34.131Z,14.60
2019-02-25T03:25:01.813Z,17.43
2019-02-25T03:27:30.406Z,16.03
2019-02-25T03:29:57.934Z,16.90
2019-02-25T03:32:25.452Z,19.03
2019-02-25T03:34:52.994Z,17.60
2019-02-25T03:37:22.707Z,14.90
2019-02-25T03:39:50.310Z,15.13
2019-02-25T03:42:17.852Z,16.97
2019-02-25T03:44:45.390Z,16.70
2019-02-25T03:47:15.018Z,18.07
2019-02-25T03:49:42.578Z,17.80
2019-02-25T03:52:10.099Z,15.73
2019-02-25T03:54:37.668Z,17.23
2019-02-25T03:57:05.252Z,18.17
2019-02-25T03:59:32.817Z,15.53
2019-02-25T04:02:00.317Z,14.73
2019-02-25T04:04:27.863Z,15.50
2019-02-25T04:06:55.291Z,16.33
2019-02-25T04:09:22.785Z,15.87
2019-02-25T04:11:50.558Z,15.27
2019-02-25T04:14:18.103Z,16.57
2019-02-25T04:16:47.019Z,15.63
2019-02-25T04:19:14.630Z,15.43
2019-02-25T04:21:42.217Z,16.63
2019-02-25T04:24:09.779Z,13.57
2019-02-25T04:26:37.364Z,14.33
2019-02-25T04:29:06.299Z,16.37
2019-02-25T04:31:33.977Z,14.43
2019-02-25T04:34:01.482Z,15.43
2019-02-25T04:36:29.056Z,16.57
2019-02-25T04:38:59.588Z,16.67
2019-02-25T04:41:27.147Z,14.20
2019-02-25T04:43:54.726Z,16.80
2019-02-25T04:46:22.357Z,17.07
2019-02-25T04:48:52.017Z,15.80
2019-02-25T04:51:21.856Z,16.53
2019-02-25T04:53:49.454Z,15.57
2019-02-25T04:56:16.992Z,14.27
2019-02-25T04:58:45.888Z,16.53
2019-02-25T05:01:14.241Z,15.57
2019-02-25T05:03:41.780Z,15.10
2019-02-25T05:06:09.343Z,15.83
2019-02-25T05:08:36.940Z,15.03
2019-02-25T05:11:25.663Z,14.43
2019-02-25T05:13:53.101Z,18.63
2019-02-25T05:16:20.702Z,15.10
2019-02-25T05:18:48.224Z,15.60
2019-02-25T05:21:15.746Z,15.23
2019-02-25T05:23:43.353Z,13.73
2019-02-25T05:26:12.391Z,15.80
2019-02-25T05:28:43.213Z,16.03
2019-02-25T05:31:10.777Z,18.20
2019-02-25T05:33:38.436Z,19.60
2019-02-25T05:36:05.978Z,17.00
2019-02-25T05:38:35.626Z,17.87
2019-02-25T05:41:03.198Z,19.50
2019-02-25T05:43:30.749Z,16.67
2019-02-25T05:46:00.838Z,16.73
2019-02-25T05:48:28.419Z,22.23
2019-02-25T05:50:56.000Z,16.63
2019-02-25T05:53:23.566Z,18.97
2019-02-25T05:55:51.102Z,20.93
2019-02-25T05:58:33.458Z,19.10
2019-02-25T06:01:00.982Z,17.70
2019-02-25T06:03:28.533Z,19.80
2019-02-25T06:05:56.077Z,21.90
2019-02-25T06:08:28.996Z,20.53
2019-02-25T06:10:56.542Z,19.33
2019-02-25T06:13:24.062Z,19.27
2019-02-25T06:15:51.727Z,22.80
2019-02-25T06:18:19.224Z,20.97
2019-02-25T06:20:46.770Z,21.70
2019-02-25T06:23:14.330Z,20.23
2019-02-25T06:25:41.855Z,23.10
2019-02-25T06:28:09.573Z,19.90
2019-02-25T06:30:37.189Z,23.57
2019-02-25T06:33:04.733Z,20.20
2019-02-25T06:35:32.346Z,21.10
2019-02-25T06:37:59.941Z,20.77
2019-02-25T06:40:29.841Z,19.50
2019-02-25T06:42:57.414Z,17.67
2019-02-25T06:45:31.050Z,21.43
2019-02-25T06:48:13.739Z,20.60
2019-02-25T06:50:43.743Z,19.93
2019-02-25T06:53:11.353Z,19.07
2019-02-25T06:55:38.913Z,23.57
2019-02-25T06:58:06.434Z,21.00
2019-02-25T07:00:34.020Z,21.63
2019-02-25T07:03:01.563Z,19.27
2019-02-25T07:05:48.814Z,20.47
2019-02-25T07:08:24.250Z,22.80
2019-02-25T07:11:00.420Z,20.40
2019-02-25T07:13:53.156Z,20.07
2019-02-25T07:16:43.241Z,22.57
2019-02-25T07:19:20.003Z,26.33
2019-02-25T07:22:10.098Z,21.77
2019-02-25T07:24:52.934Z,19.63
2019-02-25T07:27:43.005Z,23.63
2019-02-25T07:30:24.070Z,34.63
2019-02-25T07:33:23.330Z,38.93
2019-02-25T07:36:09.275Z,79.60
2019-02-25T07:38:56.865Z,109.70
2019-02-25T07:41:42.181Z,50.77
2019-02-25T07:44:20.354Z,40.90
2019-02-25T07:47:10.075Z,41.83
2019-02-25T07:50:09.171Z,40.23
2019-02-25T07:52:47.111Z,30.23
2019-02-25T07:55:30.010Z,22.10
2019-02-25T07:58:20.085Z,23.10
2019-02-25T08:00:55.639Z,19.33
2019-02-25T08:03:51.658Z,20.17
2019-02-25T08:06:41.695Z,18.50
2019-02-25T08:09:37.535Z,17.00
2019-02-25T08:12:15.386Z,21.87
2019-02-25T08:15:17.542Z,18.13
2019-02-25T08:18:11.115Z,16.47
2019-02-25T08:20:56.809Z,15.63
2019-02-25T08:23:42.462Z,14.63
2019-02-25T08:26:27.831Z,14.57
2019-02-25T08:29:33.203Z,12.80
2019-02-25T08:32:26.352Z,12.67
2019-02-25T08:35:07.635Z,16.67
2019-02-25T08:38:14.622Z,13.03
2019-02-25T08:41:04.620Z,12.80
2019-02-25T08:43:51.667Z,17.60
2019-02-25T08:46:38.663Z,13.67
2019-02-25T08:49:19.270Z,12.97
2019-02-25T08:51:46.735Z,13.57
2019-02-25T08:54:14.306Z,15.57
2019-02-25T08:56:41.902Z,15.47
2019-02-25T08:59:09.445Z,19.40
2019-02-25T09:01:36.968Z,15.17
2019-02-25T09:04:04.502Z,14.40
2019-02-25T09:06:32.089Z,15.27
2019-02-25T09:08:59.612Z,17.50
2019-02-25T09:11:27.095Z,14.73
2019-02-25T09:13:54.759Z,17.53
2019-02-25T09:16:22.308Z,11.23
2019-02-25T09:18:54.052Z,14.50
2019-02-25T09:21:21.612Z,11.63
2019-02-25T09:23:49.138Z,11.50
2019-02-25T09:26:16.702Z,11.17
2019-02-25T09:28:44.316Z,11.07
2019-02-25T09:31:11.829Z,10.80
2019-02-25T09:33:39.696Z,10.67
2019-02-25T09:36:07.215Z,10.97
2019-02-25T09:38:34.768Z,11.00
2019-02-25T09:41:02.300Z,9.77
2019-02-25T09:43:30.008Z,10.07
2019-02-25T09:45:57.512Z,15.00
2019-02-25T09:48:25.088Z,9.47
2019-02-25T09:50:52.660Z,8.27
2019-02-25T09:53:20.183Z,9.57
2019-02-25T09:55:47.728Z,7.67
2019-02-25T09:58:17.242Z,10.27
2019-02-25T10:00:46.149Z,8.67
2019-02-25T10:03:13.900Z,7.40
2019-02-25T10:05:41.432Z,7.83
2019-02-25T10:08:09.007Z,8.60
2019-02-25T10:10:36.546Z,8.43
2019-02-25T10:13:04.187Z,8.73
2019-02-25T10:15:31.710Z,12.93
2019-02-25T10:17:59.276Z,8.97
2019-02-25T10:20:26.820Z,9.43
2019-02-25T10:22:54.394Z,7.30
2019-02-25T10:25:21.982Z,8.43
2019-02-25T10:27:49.853Z,8.97
2019-02-25T10:30:18.110Z,12.77
2019-02-25T10:32:45.611Z,7.73
2019-02-25T10:35:13.176Z,8.60
2019-02-25T10:37:41.422Z,7.83
2019-02-25T10:40:11.075Z,6.87
2019-02-25T10:42:38.612Z,10.03
2019-02-25T10:45:11.048Z,11.97
2019-02-25T10:47:38.580Z,14.50
2019-02-25T10:50:07.456Z,8.90
2019-02-25T10:52:35.008Z,9.80
2019-02-25T10:55:02.536Z,13.17
2019-02-25T10:57:33.734Z,8.67
2019-02-25T11:00:02.893Z,7.47
2019-02-25T11:02:30.600Z,7.50
2019-02-25T11:04:58.263Z,9.97
2019-02-25T11:07:28.005Z,8.00
2019-02-25T11:10:22.378Z,12.13
2019-02-25T11:12:49.907Z,7.00
2019-02-25T11:15:17.412Z,7.67
2019-02-25T11:17:45.471Z,5.63
2019-02-25T11:20:14.309Z,5.17
2019-02-25T11:22:43.634Z,3.47
2019-02-25T11:25:11.830Z,6.43
2019-02-25T11:27:40.044Z,6.67
2019-02-25T11:30:09.786Z,5.20
2019-02-25T11:32:37.918Z,6.30
2019-02-25T11:35:08.155Z,5.20
2019-02-25T11:37:43.983Z,5.03
2019-02-25T11:40:11.649Z,4.97
2019-02-25T11:42:39.144Z,4.87
2019-02-25T11:45:08.962Z,4.23
2019-02-25T11:47:38.703Z,5.23
2019-02-25T11:50:08.510Z,2.90
2019-02-25T11:52:36.090Z,2.57
2019-02-25T11:55:05.521Z,3.23
2019-02-25T11:57:39.163Z,3.63
2019-02-25T12:00:25.096Z,4.13
2019-02-25T12:02:52.626Z,4.07
2019-02-25T12:05:22.145Z,3.43
2019-02-25T12:07:49.685Z,3.30
2019-02-25T12:10:18.850Z,2.87
2019-02-25T12:12:46.459Z,5.70
2019-02-25T12:15:14.509Z,3.97
2019-02-25T12:17:50.649Z,3.80
2019-02-25T12:20:18.291Z,4.93
2019-02-25T12:22:45.847Z,3.50
2019-02-25T12:25:14.609Z,3.57
2019-02-25T12:27:43.209Z,3.47
2019-02-25T12:30:14.531Z,5.33
2019-02-25T12:32:42.031Z,5.77
2019-02-25T12:35:11.657Z,3.40
2019-02-25T12:37:43.768Z,5.27
2019-02-25T12:40:11.436Z,4.27
2019-02-25T12:42:38.987Z,4.93
2019-02-25T12:45:07.146Z,3.17
2019-02-25T12:47:35.716Z,4.17
2019-02-25T12:50:04.954Z,3.77
2019-02-25T12:52:32.509Z,3.93
2019-02-25T12:55:00.353Z,5.50
2019-02-25T12:57:27.948Z,6.97
2019-02-25T12:59:55.477Z,3.93
2019-02-25T13:02:23.019Z,6.83
2019-02-25T13:04:50.750Z,3.93
2019-02-25T13:07:19.280Z,4.23
2019-02-25T13:09:46.803Z,4.17
2019-02-25T13:12:14.357Z,4.00
2019-02-25T13:14:41.894Z,4.90
2019-02-25T13:17:09.438Z,3.70
2019-02-25T13:19:37.182Z,4.50
2019-02-25T13:22:04.702Z,6.03
2019-02-25T13:24:32.691Z,9.47
2019-02-25T13:27:02.812Z,4.67
2019-02-25T13:29:30.537Z,4.73
2019-02-25T13:31:58.384Z,4.10
2019-02-25T13:34:25.930Z,4.77
2019-02-25T13:36:57.887Z,4.70
2019-02-25T13:39:25.530Z,4.87
2019-02-25T13:41:53.105Z,5.27
2019-02-25T13:44:20.644Z,3.87
2019-02-25T13:46:48.324Z,3.80
2019-02-25T13:49:15.850Z,3.90
2019-02-25T13:51:43.396Z,4.50
2019-02-25T13:54:11.031Z,4.73
2019-02-25T13:56:38.575Z,3.40
2019-02-25T13:59:06.112Z,4.67
2019-02-25T14:01:33.963Z,3.97
2019-02-25T14:04:01.531Z,4.30
2019-02-25T14:06:29.064Z,5.30
2019-02-25T14:08:56.591Z,3.53
2019-02-25T14:11:24.147Z,4.33
2019-02-25T14:13:51.678Z,3.90
2019-02-25T14:16:19.265Z,4.93
2019-02-25T14:19:04.091Z,3.20
2019-02-25T14:21:31.857Z,3.00
2019-02-25T14:23:59.825Z,3.87
2019-02-25T14:26:27.460Z,3.87
2019-02-25T14:28:55.019Z,4.67
2019-02-25T14:31:24.372Z,3.60
2019-02-25T14:33:52.345Z,5.80
2019-02-25T14:36:21.263Z,5.47
2019-02-25T14:39:28.441Z,5.93
2019-02-25T14:41:58.943Z,5.47
2019-02-25T14:44:29.761Z,5.33
2019-02-25T14:46:56.561Z,3.77
2019-02-25T14:49:24.490Z,7.17
2019-02-25T14:51:52.182Z,7.27
2019-02-25T14:54:19.772Z,5.97
2019-02-25T14:56:49.771Z,5.80
2019-02-25T14:59:19.940Z,4.43
2019-02-25T15:01:46.776Z,5.63
2019-02-25T15:04:14.354Z,7.63
2019-02-25T15:06:45.306Z,6.30
2019-02-25T15:09:14.191Z,6.23
2019-02-25T15:11:42.300Z,4.67
2019-02-25T15:14:10.673Z,5.43
2019-02-25T15:16:39.234Z,3.17
2019-02-25T15:19:06.789Z,5.60
2019-02-25T15:21:34.393Z,3.50
2019-02-25T15:24:04.191Z,4.03
2019-02-25T15:26:31.933Z,2.90
2019-02-25T15:29:00.789Z,3.40
2019-02-25T15:31:29.018Z,5.27
2019-02-25T15:33:56.600Z,6.40
2019-02-25T15:36:24.747Z,3.80
2019-02-25T15:38:53.070Z,5.00
2019-02-25T15:41:35.799Z,3.83
2019-02-25T15:44:05.272Z,4.67
2019-02-25T15:46:34.122Z,4.57
2019-02-25T15:49:01.820Z,7.40
2019-02-25T15:51:30.358Z,2.63
2019-02-25T15:53:59.839Z,6.37
2019-02-25T15:56:27.516Z,3.97
2019-02-25T15:58:55.052Z,4.37
2019-02-25T16:01:22.677Z,3.33
2019-02-25T16:03:50.524Z,5.03
2019-02-25T16:06:19.993Z,3.70
2019-02-25T16:08:50.019Z,4.97
2019-02-25T16:11:18.793Z,5.27
2019-02-25T16:13:47.362Z,4.53
2019-02-25T16:16:15.025Z,4.23
2019-02-25T16:19:06.174Z,4.87
2019-02-25T16:21:33.908Z,4.13
2019-02-25T16:24:04.362Z,3.90
2019-02-25T16:26:32.104Z,10.07
2019-02-25T16:29:04.632Z,5.03
2019-02-25T16:31:31.492Z,5.47
2019-02-25T16:34:00.333Z,8.37
2019-02-25T16:36:30.100Z,5.57
2019-02-25T16:38:58.619Z,5.60
2019-02-25T16:41:31.769Z,5.40
2019-02-25T16:43:57.481Z,6.10
2019-02-25T16:46:26.373Z,8.60
2019-02-25T16:48:55.140Z,7.63
2019-02-25T16:51:23.829Z,5.67
2019-02-25T16:53:52.861Z,8.67
2019-02-25T16:56:26.824Z,8.23
2019-02-25T17:02:04.355Z,10.83
2019-02-25T17:02:25.020Z,10.60
2019-02-25T17:04:52.820Z,5.97
2019-02-25T17:07:30.730Z,6.70
2019-02-25T17:09:58.688Z,7.63
2019-02-25T17:12:27.905Z,7.73
2019-02-25T17:15:09.964Z,7.53
2019-02-25T17:17:41.070Z,6.43
2019-02-25T17:20:13.034Z,9.50
2019-02-25T17:22:40.376Z,8.13
2019-02-25T17:25:10.345Z,9.80
2019-02-25T17:27:42.207Z,7.87
2019-02-25T17:30:19.177Z,7.77
2019-02-25T17:32:48.255Z,8.57
2019-02-25T17:35:18.540Z,12.23
2019-02-25T17:37:49.958Z,8.93
2019-02-25T17:40:17.625Z,7.63
2019-02-25T17:42:47.354Z,13.40
2019-02-25T17:45:16.949Z,10.97
2019-02-25T17:47:44.482Z,7.53
2019-02-25T17:50:13.903Z,7.43
2019-02-25T17:52:43.077Z,10.70
2019-02-25T17:55:13.283Z,11.10
2019-02-25T17:57:45.287Z,9.67
2019-02-25T18:00:16.068Z,10.27
2019-02-25T18:02:45.227Z,9.30
2019-02-25T18:05:14.288Z,9.63
2019-02-25T18:07:44.249Z,15.00
2019-02-25T18:10:12.364Z,8.90
2019-02-25T18:12:41.500Z,8.60
2019-02-25T18:15:14.161Z,11.03
2019-02-25T18:17:46.758Z,9.03
2019-02-25T18:20:14.903Z,11.00
2019-02-25T18:22:50.707Z,11.27
2019-02-25T18:25:18.468Z,12.87
2019-02-25T18:27:49.555Z,12.73
2019-02-25T18:30:17.270Z,12.73
2019-02-25T18:32:45.365Z,13.17
2019-02-25T18:35:14.419Z,14.37
2019-02-25T18:37:43.828Z,10.03
2019-02-25T18:40:16.820Z,13.13
2019-02-25T18:42:46.855Z,9.13
2019-02-25T18:45:16.528Z,11.63
2019-02-25T18:47:57.821Z,12.83
2019-02-25T18:50:26.863Z,13.30
2019-02-25T18:52:57.185Z,13.83
2019-02-25T18:55:27.164Z,16.33
2019-02-25T18:57:59.309Z,11.07
2019-02-25T19:00:36.559Z,15.53
2019-02-25T19:03:04.867Z,12.10
2019-02-25T19:05:32.578Z,12.53
2019-02-25T19:08:02.145Z,16.30
2019-02-25T19:10:30.092Z,15.07
2019-02-25T19:12:59.130Z,12.90
2019-02-25T19:15:27.708Z,13.37
2019-02-25T19:18:06.460Z,10.77
2019-02-25T19:20:36.679Z,16.33
2019-02-25T19:23:05.764Z,15.37
2019-02-25T19:25:53.886Z,14.53
2019-02-25T19:28:36.313Z,18.10
2019-02-25T19:31:11.826Z,14.63
2019-02-25T19:33:39.735Z,10.70
2019-02-25T19:36:09.347Z,12.40
2019-02-25T19:38:50.269Z,11.83
2019-02-25T19:41:20.035Z,12.97
2019-02-25T19:43:59.253Z,11.30
2019-02-25T19:46:24.679Z,11.67
2019-02-25T19:48:54.247Z,9.00
2019-02-25T19:51:28.006Z,14.20
2019-02-25T19:53:55.991Z,9.80
2019-02-25T19:56:23.802Z,10.47
2019-02-25T19:58:52.349Z,11.20
2019-02-25T20:01:22.320Z,11.17
2019-02-25T20:03:52.953Z,13.27
2019-02-25T20:06:21.707Z,11.73
2019-02-25T20:08:51.093Z,12.50
2019-02-25T20:11:19.639Z,12.37
2019-02-25T20:13:47.284Z,13.57
2019-02-25T20:16:17.932Z,22.47
2019-02-25T20:18:47.712Z,19.40
2019-02-25T20:21:19.689Z,16.10
2019-02-25T20:23:49.589Z,16.67
2019-02-25T20:26:22.333Z,17.63
2019-02-25T20:28:59.791Z,17.20
2019-02-25T20:31:35.706Z,18.37
2019-02-25T20:34:03.484Z,16.53
2019-02-25T20:36:34.597Z,17.17
2019-02-25T20:39:03.955Z,18.93
2019-02-25T20:41:31.594Z,20.00
2019-02-25T20:44:00.719Z,19.70
2019-02-25T20:46:30.877Z,23.17
2019-02-25T20:49:00.730Z,21.43
2019-02-25T20:51:29.864Z,22.13
2019-02-25T20:54:00.079Z,19.87
2019-02-25T20:56:28.865Z,21.33
2019-02-25T20:58:58.945Z,21.10
2019-02-25T21:01:27.466Z,16.97
2019-02-25T21:03:56.784Z,19.10
2019-02-25T21:06:25.231Z,18.20
2019-02-25T21:09:08.757Z,19.57
2019-02-25T21:11:36.527Z,19.57
2019-02-25T21:14:04.471Z,19.50
2019-02-25T21:16:33.116Z,17.40
2019-02-25T21:19:01.993Z,15.23
2019-02-25T21:21:32.475Z,21.40
2019-02-25T21:24:01.943Z,21.90
2019-02-25T21:26:31.561Z,21.73
2019-02-25T21:29:07.120Z,19.13
2019-02-25T21:31:35.594Z,30.20
2019-02-25T21:34:05.058Z,26.73
2019-02-25T21:36:35.931Z,28.37
2019-02-25T21:39:07.851Z,31.53
2019-02-25T21:41:37.555Z,39.97
2019-02-25T21:44:05.271Z,31.50
2019-02-25T21:46:34.268Z,28.50
2019-02-25T21:49:03.956Z,25.90
2019-02-25T21:51:41.579Z,23.67
2019-02-25T21:54:10.129Z,22.43
2019-02-25T21:56:37.773Z,22.30
2019-02-25T21:59:06.253Z,24.27
2019-02-25T22:01:36.774Z,22.37
2019-02-25T22:04:04.156Z,20.73
2019-02-25T22:06:33.242Z,21.77
2019-02-25T22:09:02.836Z,17.50
2019-02-25T22:11:30.295Z,18.67
2019-02-25T22:13:57.877Z,17.80
2019-02-25T22:16:27.395Z,16.77
2019-02-25T22:19:00.223Z,17.57
2019-02-25T22:21:27.809Z,15.73
2019-02-25T22:23:57.635Z,15.87
2019-02-25T22:26:28.899Z,18.73
2019-02-25T22:29:02.660Z,16.43
2019-02-25T22:31:32.364Z,18.03
2019-02-25T22:33:59.769Z,16.83
2019-02-25T22:36:27.445Z,17.17
2019-02-25T22:38:56.801Z,17.37
2019-02-25T22:41:25.092Z,18.80
2019-02-25T22:43:53.799Z,18.27
2019-02-25T22:46:23.551Z,18.20
2019-02-25T22:48:59.304Z,19.60
2019-02-25T22:51:28.218Z,18.50
2019-02-25T22:53:57.111Z,16.57
2019-02-25T22:56:27.949Z,17.80
2019-02-25T22:58:55.963Z,18.33
2019-02-25T23:01:23.458Z,16.03
2019-02-25T23:03:54.974Z,19.43
2019-02-25T23:06:23.596Z,18.33
2019-02-25T23:08:53.310Z,16.67
2019-02-25T23:11:26.014Z,17.07
2019-02-25T23:13:54.849Z,15.60
2019-02-25T23:16:25.266Z,19.13
2019-02-25T23:18:51.930Z,22.13
2019-02-25T23:21:23.865Z,15.80
2019-02-25T23:23:51.246Z,14.83
2019-02-25T23:26:19.873Z,19.23
2019-02-25T23:28:48.863Z,20.80
2019-02-25T23:31:17.054Z,17.03
2019-02-25T23:33:46.548Z,17.80
2019-02-25T23:36:16.738Z,16.27
2019-02-25T23:38:47.944Z,18.07
2019-02-25T23:41:16.667Z,19.37
2019-02-25T23:43:46.544Z,17.40
2019-02-25T23:46:13.944Z,18.17
2019-02-25T23:48:46.539Z,16.77
2019-02-25T23:51:16.545Z,20.43
2019-02-25T23:53:43.769Z,18.30
2019-02-25T23:56:11.437Z,18.27
2019-02-25T23:58:42.965Z,19.63
